IBE121 LEMD-EGLL
Flight info
| Callsign | IBE121 |
|---|---|
| Flight time | 1h 38m |
| Altitude | 31000 |
| Route | LEMD SIE1X SIE N858 EDIGO DGO N867 NENEM YURZI ERIGA ARTIV/N0248F340 REVTU UP87 ROXOG ROXOG1H EGLL |
| Aircraft | A359/H-SDE2E3FGHIRWY/LB1 |
Departure
| Time | 2026-05-07 00:45 |
|---|---|
| Airport | Adolfo Suárez Madrid–Barajas Airport (LEMD) |
Arrival
| Time | 2026-05-07 02:24 |
|---|---|
| Airport | London Heathrow Airport (EGLL) |
| Time | Latitude | Longitude | Altitude | Speed | Heading |
|---|---|---|---|---|---|
| 2026-05-07 00:22 | 40.49287 | -3.56879 | 1950 ft | 0 kts | 90° |
| 2026-05-07 00:38 | 40.49285 | -3.56900 | 1952 ft | 3 kts | 56° |
| 2026-05-07 00:39 | 40.49271 | -3.56918 | 1951 ft | 3 kts | 17° |
| 2026-05-07 00:39 | 40.49259 | -3.56922 | 1950 ft | 0 kts | 351° |
| 2026-05-07 00:39 | 40.49260 | -3.56923 | 1950 ft | 0 kts | 348° |
| 2026-05-07 00:39 | 40.49270 | -3.56931 | 1952 ft | 4 kts | 327° |
| 2026-05-07 00:40 | 40.49271 | -3.56932 | 1954 ft | 0 kts | 324° |
| 2026-05-07 00:40 | 40.49278 | -3.56945 | 1951 ft | 0 kts | 302° |
| 2026-05-07 00:41 | 40.49280 | -3.56969 | 1947 ft | 4 kts | 268° |
| 2026-05-07 00:41 | 40.49279 | -3.56976 | 1946 ft | 2 kts | 257° |
| 2026-05-07 00:41 | 40.49276 | -3.56983 | 1946 ft | 0 kts | 246° |
| 2026-05-07 00:41 | 40.49280 | -3.56973 | 1946 ft | 0 kts | 244° |
| 2026-05-07 00:42 | 40.49278 | -3.56981 | 1946 ft | 2 kts | 250° |
| 2026-05-07 00:42 | 40.49277 | -3.57003 | 1945 ft | 5 kts | 272° |
| 2026-05-07 00:42 | 40.49289 | -3.57104 | 1940 ft | 12 kts | 275° |
| 2026-05-07 00:42 | 40.49269 | -3.57219 | 1935 ft | 15 kts | 224° |
| 2026-05-07 00:43 | 40.49224 | -3.57235 | 1934 ft | 8 kts | 195° |
| 2026-05-07 00:43 | 40.49184 | -3.57327 | 1931 ft | 11 kts | 262° |
| 2026-05-07 00:43 | 40.49184 | -3.57397 | 1929 ft | 12 kts | 276° |
| 2026-05-07 00:43 | 40.49230 | -3.57459 | 1930 ft | 7 kts | 351° |
| 2026-05-07 00:44 | 40.49246 | -3.57459 | 1930 ft | 0 kts | 0° |
| 2026-05-07 00:44 | 40.49358 | -3.57459 | 1931 ft | 51 kts | 0° |
| 2026-05-07 00:44 | 40.49964 | -3.57464 | 1940 ft | 121 kts | 0° |
| 2026-05-07 00:45 | 40.51015 | -3.57471 | 1958 ft | 180 kts | 359° |
| 2026-05-07 00:45 | 40.52420 | -3.57476 | 2236 ft | 212 kts | 1° |
| 2026-05-07 00:45 | 40.53919 | -3.57468 | 3148 ft | 219 kts | 1° |
| 2026-05-07 00:45 | 40.55485 | -3.57424 | 4100 ft | 230 kts | 5° |
| 2026-05-07 00:46 | 40.57101 | -3.57357 | 5089 ft | 234 kts | 4° |
| 2026-05-07 00:46 | 40.58725 | -3.57271 | 6113 ft | 234 kts | 6° |
| 2026-05-07 00:46 | 40.60335 | -3.56947 | 7066 ft | 232 kts | 16° |
| 2026-05-07 00:46 | 40.61876 | -3.56384 | 8018 ft | 229 kts | 17° |
| 2026-05-07 00:47 | 40.63435 | -3.55808 | 8762 ft | 236 kts | 16° |
| 2026-05-07 00:47 | 40.65063 | -3.55461 | 9503 ft | 240 kts | 359° |
| 2026-05-07 00:47 | 40.66761 | -3.55667 | 10106 ft | 249 kts | 350° |
| 2026-05-07 00:47 | 40.68504 | -3.55852 | 10774 ft | 254 kts | 358° |
| 2026-05-07 00:48 | 40.70296 | -3.55887 | 11397 ft | 264 kts | 358° |
| 2026-05-07 00:48 | 40.72179 | -3.55871 | 11942 ft | 274 kts | 360° |
| 2026-05-07 00:48 | 40.74054 | -3.55899 | 12780 ft | 271 kts | 355° |
| 2026-05-07 00:48 | 40.75943 | -3.56028 | 13531 ft | 273 kts | 354° |
| 2026-05-07 00:49 | 40.77857 | -3.56204 | 14146 ft | 277 kts | 353° |
| 2026-05-07 00:49 | 40.79785 | -3.56412 | 14757 ft | 279 kts | 352° |
| 2026-05-07 00:49 | 40.81727 | -3.56636 | 15364 ft | 282 kts | 352° |
| 2026-05-07 00:49 | 40.83691 | -3.56868 | 15962 ft | 284 kts | 352° |
| 2026-05-07 00:50 | 40.85673 | -3.57101 | 16559 ft | 287 kts | 352° |
| 2026-05-07 00:50 | 40.87669 | -3.57332 | 17125 ft | 289 kts | 352° |
| 2026-05-07 00:50 | 40.89681 | -3.57563 | 17673 ft | 292 kts | 352° |
| 2026-05-07 00:50 | 40.91720 | -3.57801 | 18180 ft | 295 kts | 351° |
| 2026-05-07 00:51 | 40.93772 | -3.58040 | 18628 ft | 298 kts | 351° |
| 2026-05-07 00:51 | 40.95865 | -3.58277 | 19040 ft | 302 kts | 352° |
| 2026-05-07 00:51 | 40.97976 | -3.58514 | 19434 ft | 306 kts | 352° |
| 2026-05-07 00:51 | 41.00107 | -3.58755 | 19832 ft | 309 kts | 352° |
| 2026-05-07 00:52 | 41.02268 | -3.59001 | 20223 ft | 312 kts | 351° |
| 2026-05-07 00:52 | 41.04440 | -3.59249 | 20600 ft | 315 kts | 352° |
| 2026-05-07 00:52 | 41.06646 | -3.59500 | 20975 ft | 319 kts | 352° |
| 2026-05-07 00:52 | 41.08839 | -3.59748 | 21358 ft | 321 kts | 352° |
| 2026-05-07 00:53 | 41.11101 | -3.60001 | 21745 ft | 324 kts | 352° |
| 2026-05-07 00:53 | 41.13377 | -3.60072 | 22099 ft | 329 kts | 360° |
| 2026-05-07 00:53 | 41.15639 | -3.59745 | 22448 ft | 335 kts | 8° |
| 2026-05-07 00:53 | 41.17908 | -3.58939 | 22770 ft | 340 kts | 17° |
| 2026-05-07 00:54 | 41.20141 | -3.57866 | 23095 ft | 344 kts | 19° |
| 2026-05-07 00:54 | 41.22376 | -3.56675 | 23447 ft | 348 kts | 21° |
| 2026-05-07 00:54 | 41.24621 | -3.55425 | 23735 ft | 351 kts | 21° |
| 2026-05-07 00:54 | 41.26876 | -3.54156 | 24012 ft | 354 kts | 21° |
| 2026-05-07 00:55 | 41.29155 | -3.52878 | 24278 ft | 357 kts | 21° |
| 2026-05-07 00:55 | 41.31465 | -3.51594 | 24600 ft | 359 kts | 21° |
| 2026-05-07 00:55 | 41.33774 | -3.50320 | 24894 ft | 362 kts | 21° |
| 2026-05-07 00:55 | 41.36113 | -3.49036 | 25166 ft | 365 kts | 21° |
| 2026-05-07 00:56 | 41.38473 | -3.47742 | 25439 ft | 369 kts | 21° |
| 2026-05-07 00:56 | 41.40859 | -3.46435 | 25688 ft | 372 kts | 21° |
| 2026-05-07 00:56 | 41.43260 | -3.45118 | 25979 ft | 375 kts | 21° |
| 2026-05-07 00:56 | 41.45686 | -3.43787 | 26248 ft | 379 kts | 21° |
| 2026-05-07 00:57 | 41.48141 | -3.42437 | 26525 ft | 382 kts | 21° |
| 2026-05-07 00:57 | 41.50607 | -3.41080 | 26780 ft | 385 kts | 20° |
| 2026-05-07 00:57 | 41.53093 | -3.39711 | 27074 ft | 388 kts | 21° |
| 2026-05-07 00:57 | 41.55606 | -3.38326 | 27360 ft | 391 kts | 21° |
| 2026-05-07 00:58 | 41.58134 | -3.36931 | 27617 ft | 395 kts | 21° |
| 2026-05-07 00:58 | 41.60648 | -3.35543 | 27852 ft | 398 kts | 21° |
| 2026-05-07 00:58 | 41.63228 | -3.34117 | 28120 ft | 402 kts | 21° |
| 2026-05-07 00:58 | 41.65822 | -3.32683 | 28389 ft | 405 kts | 21° |
| 2026-05-07 00:59 | 41.71072 | -3.29775 | 28864 ft | 412 kts | 21° |
| 2026-05-07 00:59 | 41.73741 | -3.28294 | 29125 ft | 415 kts | 21° |
| 2026-05-07 00:59 | 41.76411 | -3.26813 | 29398 ft | 418 kts | 21° |
| 2026-05-07 01:00 | 41.79111 | -3.25312 | 29630 ft | 421 kts | 21° |
| 2026-05-07 01:00 | 41.81824 | -3.23803 | 29862 ft | 425 kts | 21° |
| 2026-05-07 01:00 | 41.84567 | -3.22275 | 30093 ft | 428 kts | 21° |
| 2026-05-07 01:00 | 41.87330 | -3.20736 | 30288 ft | 431 kts | 21° |
| 2026-05-07 01:01 | 41.90110 | -3.19187 | 30481 ft | 434 kts | 20° |
| 2026-05-07 01:01 | 41.92910 | -3.17624 | 30698 ft | 437 kts | 20° |
| 2026-05-07 01:01 | 41.95728 | -3.16050 | 30896 ft | 439 kts | 20° |
| 2026-05-07 01:01 | 41.98569 | -3.14461 | 31013 ft | 445 kts | 20° |
| 2026-05-07 01:02 | 42.01458 | -3.12846 | 31021 ft | 453 kts | 20° |
| 2026-05-07 01:02 | 42.07349 | -3.09546 | 31026 ft | 470 kts | 20° |
| 2026-05-07 01:03 | 42.13504 | -3.06090 | 31027 ft | 487 kts | 21° |
| 2026-05-07 01:03 | 42.19875 | -3.02502 | 31021 ft | 503 kts | 21° |
| 2026-05-07 01:04 | 42.26435 | -2.98800 | 31028 ft | 518 kts | 21° |
| 2026-05-07 01:04 | 42.33152 | -2.95000 | 31032 ft | 528 kts | 21° |
| 2026-05-07 01:05 | 42.39970 | -2.91133 | 31036 ft | 531 kts | 21° |
| 2026-05-07 01:05 | 42.46993 | -2.88486 | 31037 ft | 525 kts | 3° |
| 2026-05-07 01:06 | 42.54323 | -2.88418 | 31040 ft | 523 kts | 356° |
| 2026-05-07 01:06 | 42.61542 | -2.88822 | 31040 ft | 522 kts | 355° |
| 2026-05-07 01:07 | 42.68800 | -2.89268 | 31039 ft | 522 kts | 355° |
| 2026-05-07 01:07 | 42.76052 | -2.89672 | 31040 ft | 522 kts | 355° |
| 2026-05-07 01:08 | 42.83313 | -2.90054 | 31036 ft | 522 kts | 355° |
| 2026-05-07 01:08 | 42.90589 | -2.90428 | 31037 ft | 522 kts | 355° |
| 2026-05-07 01:09 | 42.97791 | -2.90807 | 31037 ft | 522 kts | 355° |
| 2026-05-07 01:09 | 43.05097 | -2.91193 | 31030 ft | 521 kts | 355° |
| 2026-05-07 01:10 | 43.12297 | -2.91575 | 31025 ft | 521 kts | 355° |
| 2026-05-07 01:10 | 43.19532 | -2.91959 | 31026 ft | 521 kts | 355° |
| 2026-05-07 01:11 | 43.26771 | -2.92343 | 31022 ft | 520 kts | 355° |
| 2026-05-07 01:11 | 43.33933 | -2.93603 | 31020 ft | 517 kts | 346° |
| 2026-05-07 01:12 | 43.40977 | -2.95631 | 31023 ft | 516 kts | 345° |
| 2026-05-07 01:12 | 43.47974 | -2.97741 | 31018 ft | 515 kts | 345° |
| 2026-05-07 01:13 | 43.54929 | -2.99842 | 31016 ft | 515 kts | 345° |
| 2026-05-07 01:13 | 43.61925 | -3.01946 | 31014 ft | 514 kts | 345° |
| 2026-05-07 01:14 | 43.68912 | -3.04047 | 31012 ft | 513 kts | 345° |
| 2026-05-07 01:14 | 43.75880 | -3.06147 | 31013 ft | 514 kts | 345° |
| 2026-05-07 01:15 | 43.82880 | -3.08262 | 31012 ft | 514 kts | 345° |
| 2026-05-07 01:15 | 43.89863 | -3.10376 | 31012 ft | 513 kts | 345° |
| 2026-05-07 01:16 | 43.96804 | -3.12484 | 31016 ft | 513 kts | 345° |
| 2026-05-07 01:16 | 44.03833 | -3.14235 | 31016 ft | 516 kts | 354° |
| 2026-05-07 01:16 | 44.07438 | -3.14099 | 31015 ft | 519 kts | 5° |
| 2026-05-07 01:17 | 44.10995 | -3.13267 | 31012 ft | 520 kts | 9° |
| 2026-05-07 01:17 | 44.18087 | -3.11167 | 31012 ft | 521 kts | 11° |
| 2026-05-07 01:18 | 44.25165 | -3.08929 | 31015 ft | 521 kts | 11° |
| 2026-05-07 01:18 | 44.32242 | -3.06710 | 31015 ft | 521 kts | 11° |
| 2026-05-07 01:19 | 44.39276 | -3.04528 | 31023 ft | 521 kts | 11° |
| 2026-05-07 01:19 | 44.46351 | -3.02338 | 31018 ft | 520 kts | 11° |
| 2026-05-07 01:20 | 44.53423 | -3.00144 | 31018 ft | 520 kts | 11° |
| 2026-05-07 01:20 | 44.60483 | -2.97946 | 31022 ft | 520 kts | 11° |
| 2026-05-07 01:21 | 44.67554 | -2.95739 | 31021 ft | 520 kts | 11° |
| 2026-05-07 01:21 | 44.74616 | -2.93529 | 31019 ft | 520 kts | 11° |
| 2026-05-07 01:22 | 44.81687 | -2.91311 | 31021 ft | 520 kts | 11° |
| 2026-05-07 01:22 | 44.88753 | -2.89088 | 31021 ft | 520 kts | 11° |
| 2026-05-07 01:23 | 44.95824 | -2.86858 | 31024 ft | 520 kts | 11° |
| 2026-05-07 01:23 | 45.02880 | -2.84628 | 31012 ft | 520 kts | 11° |
| 2026-05-07 01:24 | 45.09948 | -2.82388 | 31011 ft | 520 kts | 11° |
| 2026-05-07 01:24 | 45.16982 | -2.80153 | 31015 ft | 520 kts | 11° |
| 2026-05-07 01:25 | 45.24050 | -2.77902 | 31021 ft | 520 kts | 11° |
| 2026-05-07 01:25 | 45.31108 | -2.75648 | 31020 ft | 520 kts | 11° |
| 2026-05-07 01:26 | 45.38167 | -2.73388 | 31022 ft | 520 kts | 11° |
| 2026-05-07 01:26 | 45.45222 | -2.71124 | 31013 ft | 519 kts | 11° |
| 2026-05-07 01:27 | 45.52263 | -2.68858 | 31018 ft | 518 kts | 11° |
| 2026-05-07 01:27 | 45.59303 | -2.66587 | 31015 ft | 518 kts | 11° |
| 2026-05-07 01:28 | 45.66287 | -2.64328 | 31016 ft | 518 kts | 11° |
| 2026-05-07 01:28 | 45.73329 | -2.62044 | 31018 ft | 517 kts | 11° |
| 2026-05-07 01:29 | 45.80348 | -2.59762 | 31017 ft | 517 kts | 11° |
| 2026-05-07 01:29 | 45.87360 | -2.57476 | 31014 ft | 516 kts | 11° |
| 2026-05-07 01:30 | 45.93178 | -2.55575 | 31017 ft | 516 kts | 11° |
| 2026-05-07 01:30 | 46.00187 | -2.53280 | 31018 ft | 516 kts | 11° |
| 2026-05-07 01:31 | 46.07200 | -2.50977 | 31011 ft | 516 kts | 11° |
| 2026-05-07 01:31 | 46.14192 | -2.48676 | 31010 ft | 516 kts | 11° |
| 2026-05-07 01:32 | 46.21270 | -2.46993 | 31011 ft | 513 kts | 5° |
| 2026-05-07 01:32 | 46.28357 | -2.45797 | 31010 ft | 513 kts | 5° |
| 2026-05-07 01:33 | 46.35449 | -2.44653 | 31015 ft | 513 kts | 5° |
| 2026-05-07 01:33 | 46.42549 | -2.43501 | 31009 ft | 512 kts | 5° |
| 2026-05-07 01:34 | 46.49587 | -2.42347 | 31009 ft | 512 kts | 5° |
| 2026-05-07 01:34 | 46.56668 | -2.41179 | 31006 ft | 511 kts | 5° |
| 2026-05-07 01:35 | 46.63730 | -2.40011 | 30999 ft | 510 kts | 5° |
| 2026-05-07 01:35 | 46.70780 | -2.38842 | 30995 ft | 510 kts | 5° |
| 2026-05-07 01:36 | 46.77824 | -2.37672 | 30994 ft | 510 kts | 5° |
| 2026-05-07 01:36 | 46.84882 | -2.36496 | 30996 ft | 510 kts | 5° |
| 2026-05-07 01:37 | 46.91918 | -2.35134 | 30997 ft | 510 kts | 8° |
| 2026-05-07 01:37 | 46.98926 | -2.33359 | 30993 ft | 510 kts | 8° |
| 2026-05-07 01:38 | 47.05928 | -2.31585 | 30994 ft | 510 kts | 8° |
| 2026-05-07 01:38 | 47.12933 | -2.29880 | 30991 ft | 510 kts | 8° |
| 2026-05-07 01:39 | 47.19927 | -2.28203 | 30991 ft | 509 kts | 8° |
| 2026-05-07 01:39 | 47.26883 | -2.26534 | 30993 ft | 509 kts | 8° |
| 2026-05-07 01:40 | 47.33880 | -2.24847 | 30994 ft | 509 kts | 8° |
| 2026-05-07 01:40 | 47.40861 | -2.23158 | 30992 ft | 509 kts | 8° |
| 2026-05-07 01:41 | 47.47858 | -2.21460 | 30990 ft | 508 kts | 8° |
| 2026-05-07 01:41 | 47.54844 | -2.19761 | 30987 ft | 508 kts | 8° |
| 2026-05-07 01:42 | 47.61835 | -2.18055 | 30984 ft | 508 kts | 8° |
| 2026-05-07 01:42 | 47.68814 | -2.16348 | 30985 ft | 509 kts | 8° |
| 2026-05-07 01:43 | 47.75806 | -2.14634 | 30989 ft | 509 kts | 8° |
| 2026-05-07 01:43 | 47.82759 | -2.12924 | 30991 ft | 509 kts | 8° |
| 2026-05-07 01:44 | 47.89746 | -2.11201 | 30999 ft | 509 kts | 8° |
| 2026-05-07 01:44 | 47.96732 | -2.09474 | 30993 ft | 508 kts | 8° |
| 2026-05-07 01:45 | 48.03703 | -2.07745 | 30997 ft | 508 kts | 8° |
| 2026-05-07 01:45 | 48.10630 | -2.06023 | 30996 ft | 508 kts | 8° |
| 2026-05-07 01:46 | 48.17607 | -2.04284 | 31000 ft | 508 kts | 8° |
| 2026-05-07 01:46 | 48.24593 | -2.02537 | 31004 ft | 508 kts | 8° |
| 2026-05-07 01:47 | 48.31563 | -2.00790 | 31010 ft | 508 kts | 8° |
| 2026-05-07 01:47 | 48.38534 | -1.99038 | 31005 ft | 508 kts | 8° |
| 2026-05-07 01:48 | 48.45510 | -1.97279 | 31008 ft | 508 kts | 8° |
| 2026-05-07 01:48 | 48.52491 | -1.95515 | 31019 ft | 508 kts | 8° |
| 2026-05-07 01:49 | 48.59475 | -1.93745 | 31022 ft | 508 kts | 8° |
| 2026-05-07 01:49 | 48.66455 | -1.91970 | 31021 ft | 508 kts | 8° |
| 2026-05-07 01:50 | 48.73385 | -1.90203 | 31018 ft | 508 kts | 8° |
| 2026-05-07 01:50 | 48.80370 | -1.88418 | 31018 ft | 508 kts | 8° |
| 2026-05-07 01:51 | 48.87354 | -1.86628 | 31017 ft | 508 kts | 8° |
| 2026-05-07 01:51 | 48.94351 | -1.85140 | 31018 ft | 508 kts | 5° |
| 2026-05-07 01:52 | 49.01379 | -1.83891 | 31019 ft | 508 kts | 5° |
| 2026-05-07 01:52 | 49.08400 | -1.82600 | 31023 ft | 508 kts | 5° |
| 2026-05-07 01:53 | 49.15427 | -1.81251 | 31022 ft | 508 kts | 5° |
| 2026-05-07 01:53 | 49.22400 | -1.79891 | 31021 ft | 508 kts | 6° |
| 2026-05-07 01:54 | 49.29410 | -1.78520 | 31025 ft | 508 kts | 5° |
| 2026-05-07 01:54 | 49.36407 | -1.77149 | 30695 ft | 500 kts | 6° |
| 2026-05-07 01:54 | 49.39904 | -1.76463 | 29748 ft | 502 kts | 6° |
| 2026-05-07 01:55 | 49.43311 | -1.75794 | 29061 ft | 498 kts | 6° |
| 2026-05-07 01:55 | 49.46730 | -1.75122 | 28417 ft | 493 kts | 6° |
| 2026-05-07 01:55 | 49.50118 | -1.74454 | 27796 ft | 488 kts | 6° |
| 2026-05-07 01:55 | 49.53469 | -1.73793 | 27181 ft | 485 kts | 6° |
| 2026-05-07 01:56 | 49.56802 | -1.73135 | 26586 ft | 481 kts | 6° |
| 2026-05-07 01:56 | 49.60098 | -1.72483 | 26154 ft | 474 kts | 6° |
| 2026-05-07 01:56 | 49.63369 | -1.71955 | 26029 ft | 469 kts | 2° |
| 2026-05-07 01:56 | 49.66629 | -1.71669 | 26019 ft | 471 kts | 1° |
| 2026-05-07 01:57 | 49.69903 | -1.71479 | 26022 ft | 472 kts | 0° |
| 2026-05-07 01:57 | 49.73194 | -1.71298 | 26022 ft | 472 kts | 0° |
| 2026-05-07 01:57 | 49.76475 | -1.71094 | 26024 ft | 472 kts | 1° |
| 2026-05-07 01:57 | 49.79759 | -1.70860 | 26023 ft | 472 kts | 1° |
| 2026-05-07 01:58 | 49.83041 | -1.70601 | 26024 ft | 472 kts | 1° |
| 2026-05-07 01:58 | 49.86320 | -1.70328 | 26025 ft | 472 kts | 1° |
| 2026-05-07 01:58 | 49.89604 | -1.70048 | 26026 ft | 472 kts | 1° |
| 2026-05-07 01:58 | 49.92880 | -1.69766 | 26029 ft | 472 kts | 1° |
| 2026-05-07 01:59 | 49.96128 | -1.69486 | 26035 ft | 472 kts | 1° |
| 2026-05-07 01:59 | 49.99399 | -1.69114 | 26020 ft | 473 kts | 7° |
| 2026-05-07 01:59 | 50.02632 | -1.68061 | 26030 ft | 474 kts | 13° |
| 2026-05-07 01:59 | 50.05815 | -1.66654 | 26024 ft | 475 kts | 15° |
| 2026-05-07 02:00 | 50.08972 | -1.65087 | 26026 ft | 475 kts | 17° |
| 2026-05-07 02:00 | 50.12103 | -1.63480 | 26027 ft | 476 kts | 17° |
| 2026-05-07 02:00 | 50.15252 | -1.61867 | 26027 ft | 476 kts | 17° |
| 2026-05-07 02:00 | 50.18411 | -1.60275 | 26035 ft | 476 kts | 16° |
| 2026-05-07 02:01 | 50.21564 | -1.58710 | 26029 ft | 476 kts | 16° |
| 2026-05-07 02:01 | 50.24723 | -1.57158 | 26026 ft | 476 kts | 16° |
| 2026-05-07 02:01 | 50.27887 | -1.55615 | 26027 ft | 476 kts | 15° |
| 2026-05-07 02:01 | 50.31041 | -1.54084 | 26026 ft | 476 kts | 15° |
| 2026-05-07 02:02 | 50.34203 | -1.52541 | 26026 ft | 476 kts | 16° |
| 2026-05-07 02:02 | 50.37368 | -1.50990 | 26026 ft | 476 kts | 16° |
| 2026-05-07 02:02 | 50.40522 | -1.49440 | 25967 ft | 473 kts | 16° |
| 2026-05-07 02:02 | 50.43640 | -1.47906 | 25439 ft | 469 kts | 16° |
| 2026-05-07 02:03 | 50.46747 | -1.46376 | 24788 ft | 468 kts | 16° |
| 2026-05-07 02:03 | 50.49850 | -1.44846 | 24212 ft | 465 kts | 16° |
| 2026-05-07 02:03 | 50.52889 | -1.43318 | 23662 ft | 463 kts | 18° |
| 2026-05-07 02:03 | 50.55835 | -1.41307 | 23007 ft | 460 kts | 25° |
| 2026-05-07 02:04 | 50.58709 | -1.38971 | 22372 ft | 457 kts | 27° |
| 2026-05-07 02:04 | 50.61440 | -1.36591 | 21795 ft | 453 kts | 28° |
| 2026-05-07 02:04 | 50.64166 | -1.34163 | 21199 ft | 449 kts | 28° |
| 2026-05-07 02:04 | 50.66883 | -1.31744 | 20657 ft | 444 kts | 28° |
| 2026-05-07 02:05 | 50.69567 | -1.29377 | 20080 ft | 440 kts | 28° |
| 2026-05-07 02:05 | 50.72236 | -1.27044 | 19519 ft | 437 kts | 28° |
| 2026-05-07 02:05 | 50.74881 | -1.24748 | 18985 ft | 433 kts | 28° |
| 2026-05-07 02:05 | 50.77516 | -1.22455 | 18423 ft | 429 kts | 29° |
| 2026-05-07 02:06 | 50.80059 | -1.20013 | 17812 ft | 426 kts | 32° |
| 2026-05-07 02:06 | 50.82522 | -1.17439 | 17214 ft | 422 kts | 33° |
| 2026-05-07 02:06 | 50.84940 | -1.14838 | 16625 ft | 418 kts | 33° |
| 2026-05-07 02:06 | 50.87320 | -1.12278 | 16288 ft | 408 kts | 33° |
| 2026-05-07 02:07 | 50.89647 | -1.09801 | 16001 ft | 398 kts | 33° |
| 2026-05-07 02:07 | 50.94149 | -1.05079 | 15434 ft | 378 kts | 32° |
| 2026-05-07 02:07 | 50.96323 | -1.02819 | 15164 ft | 369 kts | 32° |
| 2026-05-07 02:08 | 50.98437 | -1.00624 | 14924 ft | 360 kts | 32° |
| 2026-05-07 02:08 | 51.00414 | -0.98352 | 14677 ft | 352 kts | 41° |
| 2026-05-07 02:08 | 51.02150 | -0.95679 | 14438 ft | 343 kts | 45° |
| 2026-05-07 02:08 | 51.03753 | -0.92945 | 14202 ft | 334 kts | 47° |
| 2026-05-07 02:09 | 51.05276 | -0.90217 | 13986 ft | 326 kts | 48° |
| 2026-05-07 02:09 | 51.06748 | -0.87534 | 13766 ft | 317 kts | 48° |
| 2026-05-07 02:09 | 51.08179 | -0.84923 | 13467 ft | 311 kts | 48° |
| 2026-05-07 02:09 | 51.09601 | -0.82344 | 13122 ft | 306 kts | 47° |
| 2026-05-07 02:10 | 51.10994 | -0.79833 | 13004 ft | 300 kts | 47° |
| 2026-05-07 02:10 | 51.12380 | -0.77346 | 12987 ft | 301 kts | 47° |
| 2026-05-07 02:10 | 51.13775 | -0.74851 | 12977 ft | 301 kts | 47° |
| 2026-05-07 02:10 | 51.15158 | -0.72377 | 12639 ft | 299 kts | 47° |
| 2026-05-07 02:11 | 51.16540 | -0.69904 | 12184 ft | 299 kts | 47° |
| 2026-05-07 02:11 | 51.17925 | -0.67426 | 11768 ft | 298 kts | 47° |
| 2026-05-07 02:11 | 51.19299 | -0.64972 | 11367 ft | 296 kts | 47° |
| 2026-05-07 02:11 | 51.20659 | -0.62527 | 11077 ft | 291 kts | 47° |
| 2026-05-07 02:12 | 51.21972 | -0.60158 | 10880 ft | 282 kts | 47° |
| 2026-05-07 02:12 | 51.23236 | -0.57872 | 10704 ft | 273 kts | 47° |
| 2026-05-07 02:12 | 51.24494 | -0.55598 | 10493 ft | 266 kts | 47° |
| 2026-05-07 02:12 | 51.25296 | -0.54147 | 10308 ft | 263 kts | 47° |
| 2026-05-07 02:13 | 51.26891 | -0.51266 | 9897 ft | 259 kts | 47° |
| 2026-05-07 02:13 | 51.28078 | -0.49121 | 9536 ft | 257 kts | 47° |
| 2026-05-07 02:13 | 51.29285 | -0.47024 | 9159 ft | 255 kts | 41° |
| 2026-05-07 02:13 | 51.30746 | -0.45492 | 8777 ft | 252 kts | 20° |
| 2026-05-07 02:14 | 51.32446 | -0.45005 | 8387 ft | 249 kts | 355° |
| 2026-05-07 02:14 | 51.33587 | -0.45362 | 8126 ft | 247 kts | 339° |
| 2026-05-07 02:14 | 51.35023 | -0.46828 | 7720 ft | 246 kts | 313° |
| 2026-05-07 02:14 | 51.35909 | -0.49127 | 7335 ft | 244 kts | 287° |
| 2026-05-07 02:15 | 51.36066 | -0.51770 | 7044 ft | 238 kts | 260° |
| 2026-05-07 02:15 | 51.35456 | -0.54186 | 6992 ft | 235 kts | 233° |
| 2026-05-07 02:15 | 51.34230 | -0.55893 | 6990 ft | 237 kts | 207° |
| 2026-05-07 02:15 | 51.32646 | -0.56547 | 6985 ft | 238 kts | 180° |
| 2026-05-07 02:16 | 51.31018 | -0.56060 | 6999 ft | 240 kts | 162° |
| 2026-05-07 02:16 | 51.29383 | -0.55630 | 6985 ft | 240 kts | 188° |
| 2026-05-07 02:16 | 51.27923 | -0.56710 | 6993 ft | 236 kts | 226° |
| 2026-05-07 02:16 | 51.27110 | -0.58997 | 6996 ft | 236 kts | 256° |
| 2026-05-07 02:17 | 51.27057 | -0.61582 | 6995 ft | 238 kts | 281° |
| 2026-05-07 02:17 | 51.27709 | -0.63992 | 6993 ft | 239 kts | 307° |
| 2026-05-07 02:17 | 51.28930 | -0.65804 | 6995 ft | 240 kts | 323° |
| 2026-05-07 02:17 | 51.30326 | -0.67285 | 6993 ft | 242 kts | 328° |
| 2026-05-07 02:18 | 51.31780 | -0.68621 | 6991 ft | 242 kts | 330° |
| 2026-05-07 02:18 | 51.33242 | -0.69894 | 6967 ft | 234 kts | 331° |
| 2026-05-07 02:18 | 51.34642 | -0.71114 | 6816 ft | 225 kts | 330° |
| 2026-05-07 02:18 | 51.35968 | -0.72287 | 6572 ft | 220 kts | 330° |
| 2026-05-07 02:19 | 51.37377 | -0.73227 | 6256 ft | 219 kts | 343° |
| 2026-05-07 02:19 | 51.38864 | -0.73646 | 5948 ft | 216 kts | 356° |
| 2026-05-07 02:19 | 51.40353 | -0.73521 | 5669 ft | 213 kts | 9° |
| 2026-05-07 02:19 | 51.41738 | -0.72866 | 5458 ft | 205 kts | 23° |
| 2026-05-07 02:20 | 51.42939 | -0.71711 | 5325 ft | 195 kts | 38° |
| 2026-05-07 02:20 | 51.43933 | -0.70342 | 5117 ft | 188 kts | 34° |
| 2026-05-07 02:20 | 51.45056 | -0.69372 | 4913 ft | 180 kts | 27° |
| 2026-05-07 02:20 | 51.46018 | -0.68166 | 4634 ft | 176 kts | 52° |
| 2026-05-07 02:21 | 51.46427 | -0.66377 | 4302 ft | 170 kts | 86° |
| 2026-05-07 02:21 | 51.46441 | -0.64487 | 3793 ft | 174 kts | 90° |
| 2026-05-07 02:21 | 51.46454 | -0.62507 | 3303 ft | 178 kts | 90° |
| 2026-05-07 02:21 | 51.46451 | -0.60529 | 2837 ft | 179 kts | 90° |
| 2026-05-07 02:22 | 51.46431 | -0.58497 | 2177 ft | 186 kts | 91° |
| 2026-05-07 02:22 | 51.46406 | -0.56406 | 1642 ft | 186 kts | 90° |
| 2026-05-07 02:22 | 51.46410 | -0.54286 | 974 ft | 191 kts | 88° |
| 2026-05-07 02:22 | 51.46439 | -0.52234 | 645 ft | 179 kts | 89° |
| 2026-05-07 02:23 | 51.46463 | -0.50311 | 396 ft | 165 kts | 89° |
| 2026-05-07 02:23 | 51.46479 | -0.48523 | 164 ft | 154 kts | 87° |
| 2026-05-07 02:23 | 51.46484 | -0.46948 | 103 ft | 106 kts | 91° |
| 2026-05-07 02:23 | 51.46481 | -0.46190 | 99 ft | 56 kts | 90° |
| 2026-05-07 02:24 | 51.46488 | -0.45532 | 94 ft | 59 kts | 89° |
| 2026-05-07 02:24 | 51.46489 | -0.45027 | 101 ft | 20 kts | 90° |
| 2026-05-07 02:24 | 51.46518 | -0.44852 | 103 ft | 15 kts | 45° |
| 2026-05-07 02:24 | 51.46598 | -0.44749 | 102 ft | 14 kts | 32° |
| 2026-05-07 02:25 | 51.46625 | -0.44736 | 103 ft | 0 kts | 1° |
| 2026-05-07 02:25 | 51.46628 | -0.44736 | 103 ft | 1 kts | 359° |
| 2026-05-07 02:25 | 51.46645 | -0.44750 | 103 ft | 5 kts | 326° |
| 2026-05-07 02:26 | 51.46663 | -0.44820 | 103 ft | 9 kts | 277° |
| 2026-05-07 02:26 | 51.46666 | -0.44949 | 101 ft | 14 kts | 268° |
| 2026-05-07 02:26 | 51.46663 | -0.45109 | 101 ft | 15 kts | 268° |
| 2026-05-07 02:26 | 51.46663 | -0.45315 | 96 ft | 22 kts | 270° |
| 2026-05-07 02:27 | 51.46663 | -0.45517 | 95 ft | 19 kts | 266° |
| 2026-05-07 02:27 | 51.46660 | -0.45739 | 95 ft | 21 kts | 272° |
| 2026-05-07 02:27 | 51.46660 | -0.45995 | 93 ft | 25 kts | 269° |
| 2026-05-07 02:27 | 51.46659 | -0.46281 | 101 ft | 25 kts | 271° |
| 2026-05-07 02:28 | 51.46660 | -0.46500 | 103 ft | 19 kts | 270° |
| 2026-05-07 02:28 | 51.46659 | -0.46693 | 104 ft | 15 kts | 269° |
| 2026-05-07 02:28 | 51.46658 | -0.46896 | 102 ft | 21 kts | 269° |
| 2026-05-07 02:28 | 51.46657 | -0.47121 | 99 ft | 21 kts | 270° |
| 2026-05-07 02:29 | 51.46656 | -0.47353 | 95 ft | 21 kts | 269° |
| 2026-05-07 02:29 | 51.46655 | -0.47603 | 96 ft | 21 kts | 270° |
| 2026-05-07 02:29 | 51.46655 | -0.47857 | 96 ft | 24 kts | 268° |
| 2026-05-07 02:29 | 51.46652 | -0.48117 | 99 ft | 19 kts | 270° |
| 2026-05-07 02:30 | 51.46653 | -0.48348 | 100 ft | 22 kts | 270° |
| 2026-05-07 02:30 | 51.46704 | -0.48471 | 102 ft | 10 kts | 3° |
| 2026-05-07 02:30 | 51.46797 | -0.48465 | 98 ft | 16 kts | 0° |
| 2026-05-07 02:30 | 51.46924 | -0.48471 | 99 ft | 21 kts | 359° |
| 2026-05-07 02:31 | 51.47087 | -0.48473 | 97 ft | 25 kts | 0° |
| 2026-05-07 02:31 | 51.47244 | -0.48475 | 97 ft | 0 kts | 355° |
| 2026-05-07 02:31 | 51.47246 | -0.48475 | 97 ft | 2 kts | 355° |
| 2026-05-07 02:31 | 51.47263 | -0.48495 | 98 ft | 2 kts | 311° |
| 2026-05-07 02:32 | 51.47269 | -0.48534 | 95 ft | 2 kts | 270° |
| 2026-05-07 02:32 | 51.47270 | -0.48548 | 96 ft | 4 kts | 276° |
| 2026-05-07 02:32 | 51.47270 | -0.48571 | 96 ft | 0 kts | 270° |
| 2026-05-07 02:32 | 51.47270 | -0.48572 | 96 ft | 1 kts | 270° |
| 2026-05-07 02:33 | 51.47270 | -0.48593 | 96 ft | 0 kts | 270° |